Impacts METAR Board
IDs:

KDTW - Detroit Metro/Wayne, MI, US

Updated at: 2200 UTC 25 May 2018
Potential Impact None Slight Moderate High
Time 25/10Z 25/11Z 25/12Z 25/13Z 25/14Z 25/15Z 25/16Z 25/17Z 25/18Z 25/19Z 25/20Z 25/21Z 25/22Z
Temp60 60 65 71 76 80 82 83 84 85 86 86 86
Dewpt49 51 52 53 55 54 54 56 55 55 55 55 55
Altim30.02 30.01 30.01 30.00 30.00 29.97 29.96 29.94 29.92 29.90 29.89 29.85 29.83
VIS6 6 7 7 10 10 10 10 10 10 10 10 10
CIG250 250 250 250 250 -- -- -- -- -- -- -- --
CoverBKNBKNBKNBKNBKNSCTSCTSCTSCTFEWFEWFEWFEW
FltCatVFRVFRVFRVFRVFRVFRVFRVFRVFRVFRVFRVFRVFR
WXHZHZ----------------------
WDir0170210220220230250230200220200200210
WSpd0 3 4 7 8 8 10 8 10 11 8 11 12
WGst-- -- -- -- -- -- -- -- -- 14 -- -- --
Raw hourly METARs
KDTW 250953Z 00000KT 6SM HZ BKN250 16/09 A3002 RMK AO2 SLP161 T01560094
KDTW 251053Z 17003KT 6SM HZ BKN250 16/11 A3001 RMK AO2 SLP158 T01560106
KDTW 251153Z 21004KT 7SM BKN250 18/11 A3001 RMK AO2 SLP158 T01830111 10183 20144 56006
KDTW 251253Z 22007KT 7SM BKN250 22/12 A3000 RMK AO2 SLP154 T02170117
KDTW 251353Z 22008KT 10SM BKN250 24/13 A3000 RMK AO2 SLP154 T02440128
KDTW 251453Z 23008KT 10SM SCT250 27/12 A2997 RMK AO2 SLP145 T02670122 58012
KDTW 251553Z 25010KT 10SM SCT250 28/12 A2996 RMK AO2 SLP141 T02780122
KDTW 251653Z 23008KT 10SM SCT250 28/13 A2994 RMK AO2 SLP134 T02830133
KDTW 251753Z COR 20010KT 10SM SCT259 29/13 A2992 RMK AO2 SLP129 T02890128 10294 20183 58016
KDTW 251853Z 22011G14KT 10SM FEW250 29/13 A2990 RMK AO2 SLP123 T02940128
KDTW 251953Z 20008KT 10SM FEW250 30/13 A2989 RMK AO2 SLP117 T03000128
KDTW 252053Z 20011KT 10SM FEW250 30/13 A2985 RMK AO2 SLP105 T03000128 58024
KDTW 252153Z 21012KT 10SM FEW250 30/13 A2983 RMK AO2 SLP097 T03000128



Page loaded:  22:11 UTC  |   03:11 PM Pacific  |   04:11 PM Mountain  |   05:11 PM Central  |   06:11 PM Eastern

 

ADVISORIES

FORECASTS

FORECASTS

OBSERVATIONS

USER TOOLS

ABOUT US